Time;durP1;ratioP1;P1;durP2;ratioP2;P2;SDS_P1;SDS_P2;PMS_P1;PMS_P2;Temp;Humidity;BMP_temperature;BMP_pressure;BME280_temperature;BME280_humidity;BME280_pressure;Samples;Min_cycle;Max_cycle;Signal;HPM_P1;HPM_P2
2023/08/06 02:41:06;;;;;;;0.60;0.10;;;18.30;99.90;;;;;;4952982;23;20871;-77
2023/08/06 02:43:34;;;;;;;0.60;0.10;;;18.20;99.90;;;;;;4935162;29;20456;-77
2023/08/06 02:46:02;;;;;;;0.60;0.10;;;18.20;99.90;;;;;;4934830;29;20448;-77
2023/08/06 02:48:30;;;;;;;0.83;0.83;;;18.10;99.90;;;;;;4935154;29;20439;-77
2023/08/06 02:50:59;;;;;;;0.60;0.10;;;18.10;99.90;;;;;;4934994;29;20537;-77
2023/08/06 02:53:27;;;;;;;0.60;0.10;;;18.10;99.90;;;;;;4934933;29;20443;-77
2023/08/06 02:55:55;;;;;;;0.60;0.10;;;18.20;99.90;;;;;;4934951;29;20906;-77
2023/08/06 02:58:25;;;;;;;0.60;0.20;;;18.20;99.90;;;;;;4935417;29;20504;-76
2023/08/06 03:01:03;;;;;;;0.60;0.10;;;18.10;99.90;;;;;;4934848;29;20474;-77
2023/08/06 03:03:32;;;;;;;0.60;0.10;;;18.10;99.90;;;;;;4928523;29;20462;-76
2023/08/06 03:06:00;;;;;;;0.60;0.10;;;18.20;99.90;;;;;;4929914;29;20455;-77
2023/08/06 03:08:28;;;;;;;0.60;0.10;;;18.20;99.90;;;;;;4916055;29;20539;-76
2023/08/06 03:10:56;;;;;;;0.60;0.20;;;;;;;;;;4915957;29;20480;-77
2023/08/06 03:13:25;;;;;;;0.60;0.10;;;18.20;99.90;;;;;;4915827;29;20456;-76
2023/08/06 03:15:54;;;;;;;0.63;0.27;;;18.20;99.90;;;;;;4923332;29;20531;-76
2023/08/06 03:18:22;;;;;;;0.60;0.10;;;18.20;99.90;;;;;;4915871;29;20586;-76
2023/08/06 03:20:50;;;;;;;0.60;0.10;;;18.20;99.90;;;;;;4915932;29;20456;-76
2023/08/06 03:23:18;;;;;;;0.60;0.10;;;18.10;99.90;;;;;;4918455;29;20596;-76
2023/08/06 03:25:47;;;;;;;0.60;0.20;;;18.20;99.90;;;;;;4920886;29;20456;-75
2023/08/06 03:28:15;;;;;;;0.60;0.10;;;18.10;99.90;;;;;;4926670;29;20515;-76
2023/08/06 03:30:44;;;;;;;0.60;0.10;;;18.10;99.90;;;;;;4924487;29;20872;-76
2023/08/06 03:33:12;;;;;;;0.60;0.10;;;18.10;99.90;;;;;;4921054;29;20522;-76
2023/08/06 03:35:40;;;;;;;0.60;0.10;;;18.20;99.90;;;;;;4919914;29;20487;-75
2023/08/06 03:38:07;;;;;;;0.60;0.10;;;18.20;99.90;;;;;;4920167;29;20544;-76
2023/08/06 03:40:36;;;;;;;0.60;0.10;;;18.20;99.90;;;;;;4929203;29;20550;-76
2023/08/06 03:43:04;;;;;;;0.60;0.10;;;18.20;99.90;;;;;;4938909;29;20535;-76
2023/08/06 03:45:32;;;;;;;0.60;0.10;;;18.10;99.90;;;;;;4939022;29;20543;-77
2023/08/06 03:48:01;;;;;;;0.60;0.10;;;18.10;99.90;;;;;;4939387;29;20455;-76
2023/08/06 03:50:29;;;;;;;0.60;0.10;;;18.10;99.90;;;;;;4934163;29;20487;-76
2023/08/06 03:52:57;;;;;;;0.60;0.10;;;18.10;99.90;;;;;;4939805;29;20510;-76
2023/08/06 03:55:25;;;;;;;0.60;0.10;;;18.00;99.90;;;;;;4938885;29;20452;-76
2023/08/06 03:57:53;;;;;;;0.60;0.10;;;18.00;99.90;;;;;;4938033;29;20894;-76
2023/08/06 04:00:20;;;;;;;0.60;0.30;;;18.00;99.90;;;;;;4938041;29;20476;-76
2023/08/06 04:02:49;;;;;;;0.60;0.10;;;17.80;99.90;;;;;;4946076;23;20959;-75
2023/08/06 04:05:18;;;;;;;0.60;0.10;;;17.80;99.90;;;;;;4917988;29;20939;-74
2023/08/06 04:07:46;;;;;;;0.60;0.17;;;17.70;99.90;;;;;;4918346;29;20542;-74
2023/08/06 04:10:14;;;;;;;0.60;0.10;;;17.70;99.90;;;;;;4917766;29;20492;-74
2023/08/06 04:12:42;;;;;;;0.60;0.10;;;17.70;99.90;;;;;;4918001;29;20571;-74
2023/08/06 04:15:10;;;;;;;0.60;0.10;;;17.60;99.90;;;;;;4918259;29;20447;-75
2023/08/06 04:17:37;;;;;;;0.60;0.10;;;17.60;99.90;;;;;;4918111;29;20969;-74
2023/08/06 04:20:07;;;;;;;0.60;0.10;;;17.60;99.90;;;;;;4918330;29;20445;-76
2023/08/06 04:22:36;;;;;;;0.60;0.10;;;17.50;99.90;;;;;;4917868;29;20464;-76
2023/08/06 04:25:05;;;;;;;0.60;0.20;;;17.50;99.90;;;;;;4918135;29;20484;-75
2023/08/06 04:27:32;;;;;;;0.60;0.10;;;17.50;99.90;;;;;;4917976;29;20495;-74
2023/08/06 04:30:00;;;;;;;0.60;0.10;;;17.60;99.90;;;;;;4918147;29;20586;-75
2023/08/06 04:32:28;;;;;;;0.60;0.20;;;17.50;99.90;;;;;;4917961;29;20456;-75
2023/08/06 04:34:56;;;;;;;0.60;0.10;;;17.50;99.90;;;;;;4916892;29;20455;-74
2023/08/06 04:37:24;;;;;;;1.53;0.40;;;17.30;99.90;;;;;;4917900;29;20453;-74
2023/08/06 04:39:54;;;;;;;0.60;0.10;;;;;;;;;;4918013;29;20547;-74
2023/08/06 04:42:22;;;;;;;1.17;0.33;;;17.20;99.90;;;;;;4918153;29;20452;-74
2023/08/06 04:44:49;;;;;;;5.03;1.63;;;17.20;99.90;;;;;;4933953;29;20538;-75
2023/08/06 04:47:17;;;;;;;1.20;0.60;;;17.10;99.90;;;;;;4936824;29;20535;-74
2023/08/06 04:49:45;;;;;;;0.60;0.20;;;17.10;99.90;;;;;;4936778;29;20450;-74
2023/08/06 04:52:13;;;;;;;0.60;0.20;;;17.10;99.90;;;;;;4936962;29;20945;-75
2023/08/06 04:54:41;;;;;;;0.60;0.20;;;17.10;99.90;;;;;;4937149;29;20483;-74
2023/08/06 04:57:10;;;;;;;0.97;0.57;;;17.00;99.90;;;;;;4937207;29;20560;-74
2023/08/06 04:59:38;;;;;;;0.70;0.40;;;16.90;99.90;;;;;;4938967;29;20452;-74
2023/08/06 05:02:06;;;;;;;2.13;0.63;;;16.90;99.90;;;;;;4937883;29;20483;-75
2023/08/06 05:04:34;;;;;;;0.60;0.10;;;16.80;99.90;;;;;;4936260;28;20476;-74
2023/08/06 05:07:02;;;;;;;0.60;0.20;;;16.80;99.90;;;;;;4936506;29;20475;-75
2023/08/06 05:09:29;;;;;;;0.60;0.10;;;16.70;99.90;;;;;;4937043;29;20453;-74
2023/08/06 05:11:57;;;;;;;0.60;0.20;;;16.50;99.90;;;;;;4936314;29;20625;-74
2023/08/06 05:14:26;;;;;;;0.60;0.10;;;16.40;99.90;;;;;;4936258;29;20482;-74
2023/08/06 05:16:55;;;;;;;0.60;0.20;;;16.50;99.90;;;;;;4935786;29;20850;-74
2023/08/06 05:19:23;;;;;;;0.60;0.20;;;16.50;99.90;;;;;;4935952;29;21019;-74
2023/08/06 05:21:51;;;;;;;0.60;0.20;;;16.40;99.90;;;;;;4936260;29;20530;-74
2023/08/06 05:24:19;;;;;;;0.60;0.20;;;16.40;99.90;;;;;;4935915;29;20478;-75
2023/08/06 05:26:49;;;;;;;0.60;0.10;;;16.40;1.00;;;;;;4935815;29;20506;-73
2023/08/06 05:29:17;;;;;;;0.60;0.10;;;16.50;1.00;;;;;;4938025;29;20543;-75
2023/08/06 05:31:46;;;;;;;0.60;0.10;;;16.50;1.00;;;;;;4938639;29;21086;-74
2023/08/06 05:34:14;;;;;;;0.60;0.10;;;16.40;1.00;;;;;;4937594;29;20465;-75
2023/08/06 05:36:42;;;;;;;0.60;0.10;;;16.40;1.00;;;;;;4936393;29;20512;-75
2023/08/06 05:39:10;;;;;;;0.60;0.10;;;16.50;1.00;;;;;;4935943;29;20452;-75
2023/08/06 05:41:38;;;;;;;5.90;0.60;;;16.60;1.00;;;;;;4936533;29;20457;-76
2023/08/06 05:44:06;;;;;;;0.60;0.10;;;16.60;1.00;;;;;;4930765;29;20476;-75
2023/08/06 05:46:33;;;;;;;2.03;1.60;;;16.60;1.00;;;;;;4924624;29;20472;-75
2023/08/06 05:49:03;;;;;;;3.73;3.50;;;16.60;1.00;;;;;;4923087;29;20445;-75
2023/08/06 05:51:31;;;;;;;0.60;0.10;;;16.50;1.00;;;;;;4922085;29;20578;-75
2023/08/06 05:53:59;;;;;;;0.60;0.10;;;16.60;1.00;;;;;;4917663;29;20822;-75
2023/08/06 05:56:26;;;;;;;0.60;0.10;;;16.60;1.00;;;;;;4917053;29;20548;-75
2023/08/06 05:58:54;;;;;;;0.60;0.10;;;16.60;1.00;;;;;;4916983;29;20537;-74
2023/08/06 06:01:23;;;;;;;0.70;0.20;;;16.50;1.00;;;;;;4917290;29;20458;-75
2023/08/06 06:03:51;;;;;;;0.60;0.10;;;16.60;1.00;;;;;;4915959;29;20556;-74
2023/08/06 06:06:20;;;;;;;0.60;0.10;;;16.60;1.00;;;;;;4916489;29;20451;-75
2023/08/06 06:08:48;;;;;;;0.60;0.10;;;16.60;1.00;;;;;;4917758;29;20479;-76
2023/08/06 06:11:16;;;;;;;0.70;0.60;;;16.60;1.00;;;;;;4916231;29;20484;-75
2023/08/06 06:13:43;;;;;;;0.60;0.10;;;16.50;1.00;;;;;;4914786;29;20527;-74
2023/08/06 06:16:11;;;;;;;0.70;0.40;;;16.50;1.00;;;;;;4914298;29;20463;-74
2023/08/06 06:18:39;;;;;;;0.80;0.30;;;16.40;1.00;;;;;;4910111;29;20449;-75
2023/08/06 06:21:07;;;;;;;0.70;0.20;;;16.50;1.00;;;;;;4911328;29;20540;-75
2023/08/06 06:23:36;;;;;;;0.60;0.10;;;16.50;1.00;;;;;;4909831;29;20478;-75
2023/08/06 06:26:04;;;;;;;0.60;0.10;;;16.50;1.00;;;;;;4902181;29;20460;-75
2023/08/06 06:28:32;;;;;;;0.60;0.10;;;16.50;1.00;;;;;;4912498;29;20539;-75
2023/08/06 06:31:01;;;;;;;0.60;0.10;;;16.50;1.00;;;;;;4915772;29;20490;-74
2023/08/06 06:33:29;;;;;;;0.60;0.10;;;16.30;1.00;;;;;;4905540;29;20482;-75
2023/08/06 06:35:57;;;;;;;1.17;0.80;;;16.30;1.00;;;;;;4915035;29;20448;-76
2023/08/06 06:38:24;;;;;;;0.60;0.17;;;16.30;1.00;;;;;;4916963;29;20475;-75
2023/08/06 06:40:57;;;;;;;6.03;4.63;;;16.30;1.00;;;;;;4903021;29;20527;-74
2023/08/06 06:43:25;;;;;;;1.10;1.03;;;16.30;1.00;;;;;;4901572;29;20471;-74
2023/08/06 06:45:58;;;;;;;0.60;0.20;;;16.30;1.00;;;;;;4907064;29;20453;-74
2023/08/06 06:48:28;;;;;;;0.60;0.10;;;16.40;1.00;;;;;;4906227;29;20452;-75
2023/08/06 06:50:56;;;;;;;0.60;0.10;;;16.40;1.00;;;;;;4902623;29;20495;-75
2023/08/06 06:53:27;;;;;;;0.60;0.10;;;16.40;1.00;;;;;;4909800;29;20506;-75
2023/08/06 06:55:56;;;;;;;0.60;0.10;;;16.40;1.00;;;;;;4915354;29;20456;-76
2023/08/06 06:58:24;;;;;;;1.07;0.97;;;16.40;1.00;;;;;;4913121;29;20455;-75
2023/08/06 07:00:52;;;;;;;0.60;0.10;;;16.50;1.00;;;;;;4902722;29;20515;-75
2023/08/06 07:03:21;;;;;;;0.60;0.10;;;16.50;1.00;;;;;;4915188;29;20510;-75
2023/08/06 07:05:48;;;;;;;0.60;0.20;;;16.50;1.00;;;;;;4907675;29;20476;-75
2023/08/06 07:08:16;;;;;;;0.60;0.20;;;16.40;1.00;;;;;;4911967;29;20531;-75
2023/08/06 07:10:44;;;;;;;0.60;0.17;;;16.40;1.00;;;;;;4915364;29;20464;-75
2023/08/06 07:13:14;;;;;;;0.60;0.20;;;16.30;1.00;;;;;;4915553;29;20528;-75
2023/08/06 07:15:41;;;;;;;2.90;2.70;;;16.40;1.00;;;;;;4915457;29;20447;-70
2023/08/06 07:18:09;;;;;;;0.60;0.20;;;16.40;1.00;;;;;;4915398;29;20964;-75
2023/08/06 07:20:37;;;;;;;5.80;1.50;;;16.50;1.00;;;;;;4916292;29;20463;-74
2023/08/06 07:23:05;;;;;;;0.60;0.20;;;16.40;1.00;;;;;;4916050;29;20474;-74
2023/08/06 07:25:35;;;;;;;0.60;0.20;;;16.30;1.00;;;;;;4916163;29;20453;-74
2023/08/06 07:28:03;;;;;;;0.60;0.10;;;16.30;1.00;;;;;;4915332;29;20459;-75
2023/08/06 07:30:33;;;;;;;0.60;0.30;;;16.40;1.00;;;;;;4915443;29;20464;-76
2023/08/06 07:33:00;;;;;;;0.60;0.10;;;16.30;1.00;;;;;;4915753;29;20497;-75
2023/08/06 07:35:29;;;;;;;0.60;0.10;;;16.00;1.00;;;;;;4915216;29;20449;-75
2023/08/06 07:37:57;;;;;;;0.60;0.13;;;15.90;1.00;;;;;;4915286;29;20545;-75
2023/08/06 07:40:25;;;;;;;0.60;0.10;;;15.90;1.00;;;;;;4915465;29;20452;-74
2023/08/06 07:42:53;;;;;;;0.60;0.10;;;15.90;1.00;;;;;;4917654;29;20475;-74
2023/08/06 07:45:21;;;;;;;0.60;0.10;;;15.80;1.00;;;;;;4934716;29;20545;-73
2023/08/06 07:47:51;;;;;;;0.80;0.20;;;15.70;1.00;;;;;;4927874;29;20538;-73
2023/08/06 07:50:19;;;;;;;0.60;0.20;;;15.70;1.00;;;;;;4915473;29;20480;-73
2023/08/06 07:52:47;;;;;;;0.60;0.10;;;15.60;1.00;;;;;;4914345;29;20586;-74
2023/08/06 07:55:15;;;;;;;0.60;0.20;;;15.50;1.00;;;;;;4915149;29;20480;-73
2023/08/06 07:57:44;;;;;;;1.33;0.77;;;15.70;1.00;;;;;;4915349;29;20546;-73
2023/08/06 08:00:12;;;;;;;0.60;0.10;;;15.80;1.00;;;;;;4915973;29;20547;-74
2023/08/06 08:02:40;;;;;;;0.60;0.20;;;15.70;1.00;;;;;;4914488;29;20519;-74
2023/08/06 08:05:09;;;;;;;0.70;0.20;;;15.60;1.00;;;;;;4910869;29;20474;-75
2023/08/06 08:07:38;;;;;;;0.60;0.10;;;;;;;;;;4907603;29;20500;-74
2023/08/06 08:10:07;;;;;;;0.60;0.20;;;15.70;1.00;;;;;;4916553;29;20884;-76
2023/08/06 08:12:35;;;;;;;0.60;0.20;;;15.70;1.00;;;;;;4907776;29;21075;-75
2023/08/06 08:15:03;;;;;;;0.60;0.30;;;15.70;1.00;;;;;;4912834;29;21009;-74
2023/08/06 08:17:31;;;;;;;1.70;1.37;;;15.70;1.00;;;;;;4917818;29;20531;-74
2023/08/06 08:19:59;;;;;;;2.27;1.63;;;15.70;1.00;;;;;;4918102;29;20634;-75
2023/08/06 08:22:28;;;;;;;0.60;0.10;;;15.70;1.00;;;;;;4932321;29;20486;-74
2023/08/06 08:24:56;;;;;;;0.60;0.10;;;15.70;1.00;;;;;;4922794;29;20944;-76
2023/08/06 08:27:24;;;;;;;0.60;0.10;;;15.80;1.00;;;;;;4900819;29;20456;-75
2023/08/06 08:29:52;;;;;;;0.60;0.10;;;15.90;1.00;;;;;;4908521;29;20542;-75
2023/08/06 08:32:19;;;;;;;0.60;0.10;;;16.00;1.00;;;;;;4932728;29;21029;-76
2023/08/06 08:34:47;;;;;;;0.60;0.10;;;16.00;1.00;;;;;;4926045;29;20985;-75
2023/08/06 08:37:15;;;;;;;0.60;0.20;;;16.00;1.00;;;;;;4923322;29;20484;-72
2023/08/06 08:39:45;;;;;;;4.10;0.50;;;16.20;1.00;;;;;;4935556;29;20448;-75
2023/08/06 08:42:14;;;;;;;0.60;0.20;;;16.20;1.00;;;;;;4932051;29;20454;-75
2023/08/06 08:44:43;;;;;;;0.60;0.10;;;16.20;1.00;;;;;;4940069;29;20486;-75
2023/08/06 08:47:11;;;;;;;0.60;0.20;;;16.30;1.00;;;;;;4921753;29;21021;-75
2023/08/06 08:49:41;;;;;;;0.60;0.10;;;16.40;1.00;;;;;;4914805;29;20444;-74
2023/08/06 08:52:12;;;;;;;0.60;0.10;;;;;;;;;;4915645;29;20481;-73
2023/08/06 08:54:41;;;;;;;0.60;0.10;;;16.40;1.00;;;;;;4910688;29;20443;-75
2023/08/06 08:57:10;;;;;;;0.60;0.20;;;16.60;1.00;;;;;;4900333;29;20492;-76
2023/08/06 08:59:38;;;;;;;0.60;0.17;;;16.60;1.00;;;;;;4919628;29;20445;-77
2023/08/06 09:02:08;;;;;;;0.60;0.20;;;16.70;1.00;;;;;;4938476;29;20475;-73
2023/08/06 09:04:36;;;;;;;0.60;0.10;;;16.80;1.00;;;;;;4936112;29;20465;-75
2023/08/06 09:07:05;;;;;;;0.60;0.10;;;17.00;1.00;;;;;;4919598;29;20511;-74
2023/08/06 09:09:37;;;;;;;0.90;0.40;;;17.00;1.00;;;;;;4931185;29;20441;-76
2023/08/06 09:12:13;;;;;;;0.60;0.10;;;17.10;1.00;;;;;;4927852;29;20857;-76
2023/08/06 09:14:42;;;;;;;0.60;0.20;;;17.20;1.00;;;;;;4935640;29;20453;-74
2023/08/06 09:17:10;;;;;;;1.00;0.30;;;17.10;1.00;;;;;;4931488;29;21031;-72
2023/08/06 09:19:38;;;;;;;0.70;0.20;;;17.30;1.00;;;;;;4906759;29;20993;-74
2023/08/06 09:22:10;;;;;;;0.70;0.30;;;17.30;1.00;;;;;;4907157;29;20474;-73
2023/08/06 09:24:40;;;;;;;0.60;0.10;;;17.30;1.00;;;;;;4905296;29;20561;-74
2023/08/06 09:27:14;;;;;;;5.37;4.63;;;17.40;1.00;;;;;;4900686;29;20866;-75
2023/08/06 09:29:43;;;;;;;4.60;2.57;;;17.50;1.00;;;;;;4901387;29;20485;-75
2023/08/06 09:32:11;;;;;;;0.60;0.10;;;17.60;99.90;;;;;;4926234;29;20492;-74
2023/08/06 09:34:41;;;;;;;0.60;0.10;;;17.40;99.90;;;;;;4937138;29;20471;-74
2023/08/06 09:37:11;;;;;;;0.60;0.10;;;17.20;99.90;;;;;;4939515;29;20454;-76
2023/08/06 09:39:40;;;;;;;0.60;0.20;;;17.20;99.90;;;;;;4937154;29;20927;-74
2023/08/06 09:42:08;;;;;;;0.70;0.37;;;17.30;99.90;;;;;;4937545;29;20538;-75
2023/08/06 09:44:38;;;;;;;0.60;0.10;;;17.20;99.90;;;;;;4915304;29;20554;-75
2023/08/06 09:47:07;;;;;;;0.60;0.20;;;17.20;99.90;;;;;;4910259;29;20437;-75
2023/08/06 09:49:43;;;;;;;0.60;0.20;;;17.20;99.90;;;;;;4910197;29;20490;-74
2023/08/06 09:52:13;;;;;;;0.60;0.10;;;17.10;99.90;;;;;;4916135;29;20469;-75
2023/08/06 09:54:41;;;;;;;0.60;0.10;;;17.10;99.90;;;;;;4922862;29;20483;-74
2023/08/06 09:57:10;;;;;;;0.60;0.10;;;17.40;99.90;;;;;;4922703;29;20826;-75
2023/08/06 09:59:42;;;;;;;0.60;0.10;;;;;;;;;;4923204;29;20448;-76
2023/08/06 10:02:14;;;;;;;0.60;0.10;;;17.90;99.90;;;;;;4922844;29;20475;-74
2023/08/06 10:04:45;;;;;;;0.60;0.10;;;18.00;99.90;;;;;;4947327;23;20500;-73
2023/08/06 10:07:23;;;;;;;0.60;0.10;;;18.10;99.90;;;;;;4911702;29;20464;-72
2023/08/06 10:09:51;;;;;;;1.37;0.57;;;18.10;99.90;;;;;;4914775;29;20537;-74
2023/08/06 10:12:20;;;;;;;0.60;0.10;;;18.20;99.90;;;;;;4914971;29;20448;-73
2023/08/06 10:14:50;;;;;;;0.60;0.20;;;18.30;99.90;;;;;;4914570;29;20615;-73
2023/08/06 10:17:18;;;;;;;0.63;0.20;;;18.40;99.90;;;;;;4916292;29;20525;-74
2023/08/06 10:19:47;;;;;;;0.60;0.10;;;18.30;99.90;;;;;;4916262;29;20458;-74
2023/08/06 10:22:17;;;;;;;0.60;0.20;;;18.40;99.90;;;;;;4916080;29;20452;-72
2023/08/06 10:24:53;;;;;;;0.70;0.30;;;18.50;99.90;;;;;;4914143;29;20488;-76
2023/08/06 10:27:23;;;;;;;0.60;0.10;;;18.60;99.90;;;;;;4910952;29;20563;-76
2023/08/06 10:29:52;;;;;;;0.60;0.30;;;18.80;99.90;;;;;;4914301;29;20452;-75
2023/08/06 10:32:21;;;;;;;0.70;0.20;;;;;;;;;;4911130;29;20473;-74
2023/08/06 10:34:57;;;;;;;0.60;0.10;;;18.90;99.90;;;;;;4908054;29;20575;-73
2023/08/06 10:37:35;;;;;;;0.60;0.10;;;18.80;99.90;;;;;;4916472;29;20459;-73
2023/08/06 10:40:04;;;;;;;0.60;0.23;;;18.80;99.90;;;;;;4915319;29;20475;-73
2023/08/06 10:42:32;;;;;;;0.60;0.20;;;18.80;99.90;;;;;;4912329;29;20977;-74
2023/08/06 10:45:16;;;;;;;0.90;0.30;;;18.90;99.90;;;;;;4921343;29;20484;-75
2023/08/06 10:47:44;;;;;;;0.60;0.10;;;18.90;99.90;;;;;;4915859;29;20469;-74
2023/08/06 10:50:16;;;;;;;0.60;0.23;;;18.50;99.90;;;;;;4917541;29;20535;-74
2023/08/06 10:52:44;;;;;;;0.60;0.10;;;18.40;99.90;;;;;;4916184;29;20459;-76
2023/08/06 10:55:12;;;;;;;0.60;0.20;;;18.40;99.90;;;;;;4907854;29;20481;-73
2023/08/06 10:57:40;;;;;;;1.27;0.47;;;18.40;99.90;;;;;;4912818;29;20831;-75
2023/08/06 11:00:12;;;;;;;0.70;0.37;;;18.30;99.90;;;;;;4912952;29;20488;-72
2023/08/06 11:02:47;;;;;;;2.10;2.00;;;18.30;99.90;;;;;;4912326;29;20523;-72
2023/08/06 11:05:15;;;;;;;0.60;0.10;;;18.40;99.90;;;;;;4905334;29;20502;-72
2023/08/06 11:07:43;;;;;;;0.60;0.20;;;18.50;99.90;;;;;;4926805;29;21047;-73
2023/08/06 11:10:13;;;;;;;0.60;0.10;;;18.50;99.90;;;;;;4925296;29;20530;-74
2023/08/06 11:12:41;;;;;;;4.60;0.50;;;;;;;;;;4918979;29;20452;-74
2023/08/06 11:15:11;;;;;;;0.70;0.40;;;18.70;99.90;;;;;;4930469;29;20857;-75
2023/08/06 11:17:41;;;;;;;0.60;0.10;;;18.50;99.90;;;;;;4918459;29;20446;-73
2023/08/06 11:20:11;;;;;;;0.60;0.10;;;18.20;99.90;;;;;;4924039;29;20447;-72
2023/08/06 11:22:40;;;;;;;1.40;0.63;;;18.20;99.90;;;;;;4930619;29;20884;-72
2023/08/06 11:25:09;;;;;;;0.60;0.10;;;18.30;99.90;;;;;;4918992;29;20635;-73
2023/08/06 11:27:36;;;;;;;2.57;0.70;;;18.30;99.90;;;;;;4929462;29;20534;-72
2023/08/06 11:30:05;;;;;;;0.90;0.30;;;18.40;99.90;;;;;;4925858;29;20481;-72
2023/08/06 11:32:35;;;;;;;0.60;0.20;;;;;;;;;;4923934;29;20483;-72
2023/08/06 11:35:12;;;;;;;0.60;0.20;;;18.50;99.90;;;;;;4933175;29;20620;-72
2023/08/06 11:37:44;;;;;;;0.60;0.10;;;18.60;99.90;;;;;;4933319;29;21004;-72
2023/08/06 11:40:12;;;;;;;0.60;0.20;;;18.70;99.90;;;;;;4913074;29;20515;-71
2023/08/06 11:42:40;;;;;;;0.60;0.20;;;18.90;99.90;;;;;;4914714;29;20466;-72
2023/08/06 11:45:09;;;;;;;0.60;0.20;;;19.00;99.90;;;;;;4936364;29;20449;-72
2023/08/06 11:47:40;;;;;;;0.60;0.13;;;19.00;99.90;;;;;;4936985;29;20455;-72
2023/08/06 11:50:08;;;;;;;0.60;0.30;;;18.90;99.90;;;;;;4927285;29;20983;-71
2023/08/06 11:52:42;;;;;;;0.60;0.10;;;18.70;99.90;;;;;;4918943;29;20527;-73
2023/08/06 11:55:14;;;;;;;0.70;0.33;;;18.50;99.90;;;;;;4918131;29;20495;-72
2023/08/06 11:57:46;;;;;;;0.70;0.20;;;18.30;99.90;;;;;;4919014;29;20461;-72
2023/08/06 12:00:16;;;;;;;0.60;0.20;;;18.10;99.90;;;;;;4918345;29;20517;-73
2023/08/06 12:02:45;;;;;;;0.60;0.30;;;17.90;99.90;;;;;;4918146;29;20507;-71
2023/08/06 12:05:18;;;;;;;0.60;0.10;;;17.80;99.90;;;;;;4914322;29;20842;-70
2023/08/06 12:07:48;;;;;;;0.60;0.10;;;17.70;99.90;;;;;;4914692;29;20461;-72
2023/08/06 12:10:19;;;;;;;0.60;0.20;;;17.70;99.90;;;;;;4918016;29;20448;-72
2023/08/06 12:12:47;;;;;;;0.60;0.10;;;17.50;99.90;;;;;;4918113;29;20459;-70
2023/08/06 12:15:15;;;;;;;0.60;0.10;;;17.40;99.90;;;;;;4917342;29;20522;-73
2023/08/06 12:17:43;;;;;;;0.60;0.20;;;17.30;99.90;;;;;;4917766;29;20926;-72
2023/08/06 12:20:13;;;;;;;0.60;0.10;;;17.10;99.90;;;;;;4918302;29;20817;-72
2023/08/06 12:22:41;;;;;;;0.60;0.20;;;16.90;99.90;;;;;;4926880;29;20512;-72
2023/08/06 12:25:14;;;;;;;0.60;0.10;;;;;;;;;;4919917;29;20993;-71
2023/08/06 12:27:44;;;;;;;0.60;0.13;;;16.80;99.90;;;;;;4918852;29;20530;-71
2023/08/06 12:30:14;;;;;;;0.60;0.10;;;16.80;99.90;;;;;;4909520;29;20499;-72
2023/08/06 12:32:42;;;;;;;0.60;0.30;;;;;;;;;;4915828;29;20941;-72
2023/08/06 12:35:10;;;;;;;0.60;0.20;;;16.80;99.90;;;;;;4917114;29;20519;-71
2023/08/06 12:37:43;;;;;;;0.60;0.10;;;16.90;99.90;;;;;;4915306;29;20469;-71
2023/08/06 12:40:16;;;;;;;0.60;0.10;;;16.90;99.90;;;;;;4911388;29;20448;-69
2023/08/06 12:43:02;;;;;;;0.60;0.20;;;16.90;99.90;;;;;;4911320;29;20468;-70
2023/08/06 12:45:30;;;;;;;0.60;0.13;;;16.90;99.90;;;;;;4917036;29;20504;-71
2023/08/06 12:47:59;;;;;;;0.60;0.20;;;;;;;;;;4917434;29;20486;-69
2023/08/06 12:50:27;;;;;;;0.60;0.23;;;;;;;;;;4917282;29;20812;-71
2023/08/06 12:52:58;;;;;;;0.60;0.20;;;;;;;;;;4917306;29;21149;-71
2023/08/06 12:55:31;;;;;;;0.60;0.30;;;16.90;99.90;;;;;;4916295;29;20846;-71
2023/08/06 12:58:00;;;;;;;0.60;0.10;;;16.90;99.90;;;;;;4917422;29;20456;-70
2023/08/06 13:00:28;;;;;;;0.60;0.20;;;17.00;99.90;;;;;;4916938;29;20475;-71
2023/08/06 13:02:56;;;;;;;0.60;0.10;;;17.00;99.90;;;;;;4916417;29;20449;-71
2023/08/06 13:05:24;;;;;;;0.60;0.10;;;16.90;99.90;;;;;;4905940;29;20452;-72
2023/08/06 13:07:52;;;;;;;0.60;0.10;;;16.90;99.90;;;;;;4906683;29;20535;-72
2023/08/06 13:10:20;;;;;;;0.60;0.10;;;16.90;99.90;;;;;;4917072;29;20462;-72
2023/08/06 13:12:53;;;;;;;2.97;0.87;;;16.90;99.90;;;;;;4916832;29;20583;-71
2023/08/06 13:15:25;;;;;;;0.60;0.10;;;16.90;99.90;;;;;;4918689;29;20503;-71
2023/08/06 13:17:55;;;;;;;0.60;0.10;;;16.90;99.90;;;;;;4910100;29;20555;-71
2023/08/06 13:20:23;;;;;;;0.70;0.50;;;16.80;99.90;;;;;;4913506;29;20463;-70
2023/08/06 13:22:53;;;;;;;0.60;0.20;;;;;;;;;;4915395;29;20520;-71
2023/08/06 13:25:36;;;;;;;0.60;0.13;;;16.70;99.90;;;;;;4915539;29;20567;-70
2023/08/06 13:28:24;;;;;;;0.60;0.10;;;16.70;99.90;;;;;;4912525;29;20790;-71
2023/08/06 13:31:11;;;;;;;0.60;0.17;;;16.70;99.90;;;;;;4917404;29;21162;-73
2023/08/06 13:33:41;;;;;;;0.60;0.10;;;16.70;99.90;;;;;;4913612;29;20482;-71
2023/08/06 13:36:10;;;;;;;0.60;0.20;;;16.80;99.90;;;;;;4913275;29;20483;-71
2023/08/06 13:38:45;;;;;;;0.70;0.30;;;16.70;99.90;;;;;;4912684;29;20563;-71
2023/08/06 13:41:26;;;;;;;0.60;0.10;;;16.60;99.90;;;;;;4917327;29;20796;-71
2023/08/06 13:44:05;;;;;;;0.60;0.10;;;16.50;99.90;;;;;;4920364;29;20514;-72
2023/08/06 13:46:42;;;;;;;0.60;0.10;;;16.50;99.90;;;;;;4937025;29;20447;-73
2023/08/06 13:49:20;;;;;;;0.60;0.10;;;16.50;99.90;;;;;;4925219;29;20454;-72
2023/08/06 13:51:55;;;;;;;0.60;0.20;;;16.50;99.90;;;;;;4932202;29;20454;-72
2023/08/06 13:54:53;;;;;;;0.60;0.10;;;16.60;99.90;;;;;;4898963;29;20494;-75
2023/08/06 13:57:23;;;;;;;0.60;0.10;;;16.50;99.90;;;;;;4916286;29;20952;-78
2023/08/06 13:59:55;;;;;;;0.60;0.10;;;16.50;99.90;;;;;;4919228;29;20502;-77
2023/08/06 14:02:25;;;;;;;0.60;0.10;;;16.50;99.90;;;;;;4918082;29;20471;-78
2023/08/06 14:05:02;;;;;;;0.60;0.10;;;16.50;99.90;;;;;;4918624;29;20488;-78
2023/08/06 14:07:38;;;;;;;0.60;0.10;;;16.60;99.90;;;;;;4917483;29;20516;-77
2023/08/06 14:10:09;;;;;;;0.60;0.20;;;16.50;99.90;;;;;;4917484;29;20452;-75
2023/08/06 14:12:42;;;;;;;0.60;0.10;;;16.40;99.90;;;;;;4932986;29;20540;-77
2023/08/06 14:15:33;;;;;;;0.67;0.30;;;16.40;99.90;;;;;;4919137;29;20485;-78
2023/08/06 14:18:03;;;;;;;0.73;0.30;;;16.40;99.90;;;;;;4915873;29;20977;-77
2023/08/06 14:20:35;;;;;;;0.60;0.10;;;16.50;99.90;;;;;;4911767;29;20490;-77
2023/08/06 14:23:06;;;;;;;0.63;0.20;;;16.60;99.90;;;;;;4909086;29;20461;-77
2023/08/06 14:25:38;;;;;;;0.60;0.20;;;16.60;99.90;;;;;;4907419;29;20449;-77
2023/08/06 14:28:23;;;;;;;0.60;0.10;;;16.70;99.90;;;;;;4908742;29;20470;-77
2023/08/06 14:31:15;;;;;;;0.60;0.20;;;16.70;99.90;;;;;;4907673;29;20841;-77
2023/08/06 14:33:48;;;;;;;0.70;0.43;;;16.80;99.90;;;;;;4915220;29;20484;-71
2023/08/06 14:36:32;;;;;;;0.60;0.20;;;16.90;99.90;;;;;;4913959;29;20507;-72
2023/08/06 14:39:06;;;;;;;0.60;0.10;;;16.90;99.90;;;;;;4915661;29;20933;-77
2023/08/06 14:41:35;;;;;;;0.60;0.10;;;17.00;99.90;;;;;;4914690;29;21464;-77
2023/08/06 14:44:04;;;;;;;0.60;0.20;;;17.00;99.90;;;;;;4919885;29;20471;-73
2023/08/06 14:46:50;;;;;;;0.70;0.23;;;16.80;99.90;;;;;;4929297;29;20479;-75
2023/08/06 14:49:44;;;;;;;0.80;0.20;;;16.90;99.90;;;;;;4928200;29;20443;-76
2023/08/06 14:52:21;;;;;;;0.60;0.10;;;16.90;99.90;;;;;;4914403;29;20456;-75
2023/08/06 14:54:58;;;;;;;0.60;0.20;;;17.00;99.90;;;;;;4906408;29;20810;-75
2023/08/06 14:57:33;;;;;;;0.60;0.20;;;17.00;99.90;;;;;;4906221;29;20440;-75
2023/08/06 15:00:08;;;;;;;0.60;0.10;;;17.00;99.90;;;;;;4906884;29;20509;-76
2023/08/06 15:02:48;;;;;;;0.60;0.30;;;17.00;99.90;;;;;;4913329;29;20534;-74
2023/08/06 15:05:20;;;;;;;0.60;0.10;;;17.10;99.90;;;;;;4915269;29;20463;-76
2023/08/06 15:07:55;;;;;;;0.70;0.30;;;17.10;99.90;;;;;;4928598;29;20558;-75
2023/08/06 15:10:30;;;;;;;0.60;0.10;;;17.20;99.90;;;;;;4934836;29;20510;-74
2023/08/06 15:13:06;;;;;;;0.60;0.10;;;17.20;99.90;;;;;;4931897;29;20527;-76
2023/08/06 15:15:41;;;;;;;0.60;0.10;;;17.30;99.90;;;;;;4929201;29;20871;-75
2023/08/06 15:18:14;;;;;;;0.60;0.10;;;17.40;99.90;;;;;;4943219;29;20869;-69
2023/08/06 15:20:45;;;;;;;0.60;0.10;;;17.50;99.90;;;;;;4949450;29;20934;-73
2023/08/06 15:23:18;;;;;;;0.60;0.10;;;17.60;99.90;;;;;;4939716;29;20483;-71
2023/08/06 15:25:58;;;;;;;0.60;0.20;;;17.50;99.90;;;;;;4937105;29;20461;-72
2023/08/06 15:28:31;;;;;;;0.80;0.27;;;17.50;99.90;;;;;;4939846;29;20451;-74
2023/08/06 15:31:10;;;;;;;0.60;0.10;;;17.40;99.90;;;;;;4949068;29;20470;-74
2023/08/06 15:33:42;;;;;;;0.60;0.10;;;17.30;99.90;;;;;;4941898;28;20466;-73
2023/08/06 15:36:13;;;;;;;0.60;0.10;;;17.20;99.90;;;;;;4937334;29;20566;-74
2023/08/06 15:38:46;;;;;;;0.60;0.10;;;17.20;99.90;;;;;;4936793;29;20479;-74
2023/08/06 15:41:17;;;;;;;0.60;0.10;;;17.20;99.90;;;;;;4937843;29;20462;-75
2023/08/06 15:43:48;;;;;;;0.70;0.30;;;17.10;99.90;;;;;;4952185;29;20556;-74
2023/08/06 15:46:22;;;;;;;0.70;0.20;;;16.90;99.90;;;;;;4947533;29;20816;-73
2023/08/06 15:48:57;;;;;;;0.60;0.10;;;16.90;99.90;;;;;;4949521;29;20444;-72
2023/08/06 15:51:36;;;;;;;0.60;0.10;;;16.90;99.90;;;;;;4942191;29;20497;-73